Time;durP1;ratioP1;P1;durP2;ratioP2;P2;SDS_P1;SDS_P2;PMS_P1;PMS_P2;Temp;Humidity;BMP_temperature;BMP_pressure;BME280_temperature;BME280_humidity;BME280_pressure;Samples;Min_cycle;Max_cycle;Signal;HPM_P1;HPM_P2
2021/06/25 00:04:13;;;;;;;15.67;11.37;;;;;;;21.41;100.00;100305.50;714149;1199;114336;-76
2021/06/25 00:19:16;;;;;;;17.95;12.75;;;;;;;21.47;100.00;100314.52;714250;1177;114364;-77
2021/06/25 00:34:18;;;;;;;24.13;11.45;;;;;;;21.34;100.00;100316.17;714040;1200;114360;-75
2021/06/25 00:49:21;;;;;;;27.10;12.10;;;;;;;21.03;100.00;100266.91;714248;1177;116196;-76
2021/06/25 01:04:23;;;;;;;16.73;10.15;;;;;;;20.87;100.00;100260.14;713939;1200;115118;-75
2021/06/25 01:19:25;;;;;;;17.57;9.90;;;;;;;20.66;100.00;100236.31;714121;1199;114842;-76
2021/06/25 01:34:27;;;;;;;14.65;9.65;;;;;;;20.50;100.00;100240.18;713976;1200;114042;-78
2021/06/25 01:49:30;;;;;;;15.87;8.87;;;;;;;20.37;100.00;100220.46;714164;1199;115480;-76
2021/06/25 02:04:32;;;;;;;13.10;8.90;;;;;;;20.16;100.00;100229.41;714371;1200;116145;-77
2021/06/25 02:19:34;;;;;;;17.30;10.20;;;;;;;20.12;100.00;100252.14;714157;1200;115100;-76
2021/06/25 02:34:36;;;;;;;19.10;11.20;;;;;;;19.92;100.00;100279.48;714238;1200;115013;-77
2021/06/25 02:49:38;;;;;;;17.67;12.17;;;;;;;19.94;100.00;100298.77;714198;1199;115238;-76
2021/06/25 03:04:40;;;;;;;20.68;12.93;;;;;;;19.76;100.00;100315.20;714396;1203;114829;-74
2021/06/25 03:19:43;;;;;;;28.47;14.17;;;;;;;20.00;100.00;100325.63;714410;1200;114378;-75
2021/06/25 03:34:45;;;;;;;24.00;13.60;;;;;;;19.94;100.00;100317.39;714274;1199;114819;-78
2021/06/25 03:49:48;;;;;;;25.00;12.43;;;;;;;20.16;100.00;100311.16;717084;1199;114386;-78
2021/06/25 04:04:50;;;;;;;23.90;12.70;;;;;;;20.17;100.00;100291.50;714432;1200;115687;-78
2021/06/25 04:19:52;;;;;;;17.38;11.68;;;;;;;20.23;100.00;100266.72;714094;1200;114374;-77
2021/06/25 04:34:55;;;;;;;28.28;15.28;;;;;;;19.76;100.00;100287.77;714524;1199;115918;-77
2021/06/25 04:49:57;;;;;;;26.28;15.83;;;;;;;19.11;100.00;100291.39;714195;1199;114902;-79
2021/06/25 05:04:58;;;;;;;26.23;15.43;;;;;;;19.05;100.00;100308.09;717079;1164;115228;-75
2021/06/25 05:20:02;;;;;;;24.18;14.00;;;;;;;19.07;100.00;100290.13;714096;1199;115303;-73
2021/06/25 05:35:04;;;;;;;23.38;13.68;;;;;;;19.28;100.00;100275.15;713871;1202;114447;-75
2021/06/25 05:50:07;;;;;;;21.13;12.20;;;;;;;19.54;100.00;100306.45;713887;1202;115566;-73
2021/06/25 06:05:11;;;;;;;28.45;12.65;;;;;;;19.38;100.00;100354.63;713802;1199;114358;-72
2021/06/25 06:20:20;;;;;;;18.33;10.47;;;;;;;19.45;100.00;100348.34;713766;1199;115187;-74
2021/06/25 06:35:22;;;;;;;21.08;10.48;;;;;;;19.60;100.00;100342.13;713900;1200;114374;-74
2021/06/25 06:50:24;;;;;;;22.10;10.10;;;;;;;20.33;100.00;100375.57;713852;1199;114453;-73
2021/06/25 07:05:27;;;;;;;11.20;6.13;;;;;;;21.01;100.00;100396.13;713876;1199;115902;-75
2021/06/25 07:20:29;;;;;;;15.33;6.80;;;;;;;21.19;100.00;100382.23;713961;1200;115634;-82
2021/06/25 07:35:32;;;;;;;11.33;6.50;;;;;;;22.00;100.00;100389.24;714026;1188;114053;-79
2021/06/25 07:50:34;;;;;;;16.57;6.80;;;;;;;21.88;100.00;100385.55;713957;1200;114183;-78
2021/06/25 08:05:37;;;;;;;9.53;5.90;;;;;;;22.11;100.00;100390.45;714154;1200;114837;-80
2021/06/25 08:20:39;;;;;;;9.38;6.10;;;;;;;22.06;100.00;100396.41;714575;1199;115865;-78
2021/06/25 08:35:42;;;;;;;9.50;6.13;;;;;;;22.39;100.00;100402.73;713822;1200;114259;-82
2021/06/25 08:50:52;;;;;;;5.75;4.85;;;;;;;23.07;100.00;100396.86;714294;1203;115229;-72
2021/06/25 09:06:13;;;;;;;13.23;5.53;;;;;;;23.33;100.00;100427.17;714097;1206;115049;-71
2021/06/25 09:21:17;;;;;;;5.58;4.13;;;;;;;22.90;100.00;100435.86;713813;1203;115720;-74
2021/06/25 09:36:39;;;;;;;9.23;3.65;;;;;;;23.45;100.00;100421.95;713884;1199;115516;-72
2021/06/25 09:51:56;;;;;;;5.53;3.38;;;;;;;23.62;100.00;100416.88;714064;1200;114086;-74
2021/06/25 10:07:17;;;;;;;2.83;2.53;;;;;;;24.31;100.00;100411.53;713924;1200;113861;-75
2021/06/25 10:22:25;;;;;;;2.68;2.25;;;;;;;24.64;100.00;100426.45;713942;1200;115522;-74
2021/06/25 10:37:28;;;;;;;3.43;2.58;;;;;;;23.53;100.00;100447.64;713769;1202;114133;-74
2021/06/25 10:52:33;;;;;;;3.30;2.50;;;;;;;23.31;100.00;100466.73;713906;1203;113885;-73
2021/06/25 11:07:43;;;;;;;4.90;2.50;;;;;;;23.89;100.00;100457.69;713815;1177;114504;-73
2021/06/25 11:22:53;;;;;;;4.55;2.48;;;;;;;25.19;99.76;100455.00;713926;1200;115107;-74
2021/06/25 11:37:59;;;;;;;3.37;2.70;;;;;;;24.74;95.46;100440.15;713848;1203;114662;-74
2021/06/25 11:53:01;;;;;;;6.65;2.18;;;;;;;25.81;93.52;100439.65;713927;1203;113809;-74
2021/06/25 12:08:10;;;;;;;4.95;2.58;;;;;;;26.80;89.22;100451.50;713880;1200;113864;-73
2021/06/25 12:23:13;;;;;;;3.73;2.50;;;;;;;25.36;87.83;100460.58;713954;1202;113902;-73
2021/06/25 12:38:24;;;;;;;2.53;2.17;;;;;;;27.21;87.65;100433.41;714013;1199;113970;-74
2021/06/25 12:53:28;;;;;;;4.30;2.83;;;;;;;26.82;83.71;100425.19;713889;1200;113810;-71
2021/06/25 13:08:31;;;;;;;2.83;2.25;;;;;;;25.94;84.17;100419.80;714034;1202;115230;-72
2021/06/25 13:23:34;;;;;;;3.88;2.58;;;;;;;25.61;83.45;100421.99;714028;1200;114278;-74
2021/06/25 13:38:39;;;;;;;4.43;2.20;;;;;;;26.88;83.71;100446.56;713751;1183;113827;-74
2021/06/25 13:53:46;;;;;;;3.23;2.25;;;;;;;25.36;80.86;100454.41;713749;1199;114410;-75
2021/06/25 14:08:50;;;;;;;5.55;2.50;;;;;;;25.09;83.23;100442.15;713846;1202;114702;-73
2021/06/25 14:23:52;;;;;;;4.60;2.40;;;;;;;26.36;82.12;100422.36;713795;1176;113952;-73
2021/06/25 14:38:54;;;;;;;4.58;2.55;;;;;;;25.91;80.83;100421.08;713860;1199;115245;-74
2021/06/25 14:54:00;;;;;;;6.15;2.73;;;;;;;25.87;83.32;100438.73;713815;1200;114050;-73
2021/06/25 15:09:02;;;;;;;5.10;3.33;;;;;;;25.74;84.80;100415.59;714304;1200;113891;-73
2021/06/25 15:24:05;;;;;;;3.40;3.05;;;;;;;26.20;84.40;100410.47;714025;1200;114212;-73
2021/06/25 15:39:07;;;;;;;5.20;3.13;;;;;;;25.96;85.04;100402.39;713940;1203;114085;-73
2021/06/25 15:54:09;;;;;;;3.78;3.08;;;;;;;26.36;83.37;100372.08;714151;1200;114216;-73
2021/06/25 16:24:21;;;;;;;5.10;2.80;;;;;;;25.63;82.86;100373.41;713845;1200;115352;-74
2021/06/25 16:39:23;;;;;;;4.90;3.30;;;;;;;25.30;82.98;100388.17;714657;1203;114079;-74
2021/06/25 16:54:25;;;;;;;45.75;18.13;;;;;;;26.18;82.95;100389.17;714359;1202;113819;-75
2021/06/25 17:09:27;;;;;;;13.75;6.85;;;;;;;26.56;80.76;100376.23;714584;1200;114201;-74
2021/06/25 17:24:30;;;;;;;11.38;9.53;;;;;;;26.04;81.01;100396.69;714166;1189;114912;-73
2021/06/25 17:39:32;;;;;;;11.70;5.00;;;;;;;25.47;83.25;100396.41;714125;1174;114459;-74
2021/06/25 17:54:34;;;;;;;4.53;3.10;;;;;;;25.18;83.86;100401.56;715060;1200;114109;-74
2021/06/25 18:09:37;;;;;;;19.90;11.65;;;;;;;24.55;86.78;100400.95;714114;1199;113838;-72
2021/06/25 18:24:40;;;;;;;15.23;8.95;;;;;;;24.26;89.88;100411.38;714115;1199;115694;-72
2021/06/25 18:39:44;;;;;;;34.05;24.08;;;;;;;23.89;92.53;100406.80;713950;1199;115294;-73
2021/06/25 18:54:48;;;;;;;15.27;8.73;;;;;;;23.38;95.05;100440.73;713858;1178;114168;-72
2021/06/25 19:09:50;;;;;;;11.45;7.78;;;;;;;23.16;97.35;100456.33;713980;1199;114081;-73
2021/06/25 19:24:52;;;;;;;7.03;5.60;;;;;;;23.02;99.08;100455.53;714037;1200;115681;-71
2021/06/25 19:39:54;;;;;;;20.33;12.20;;;;;;;22.80;100.00;100467.58;713906;1195;113936;-71
2021/06/25 19:54:56;;;;;;;9.88;7.70;;;;;;;22.73;100.00;100468.41;713956;1177;114388;-73
2021/06/25 20:09:59;;;;;;;9.30;7.25;;;;;;;22.27;100.00;100488.03;713919;1200;114592;-73
2021/06/25 20:25:05;;;;;;;4.63;4.10;;;;;;;21.90;100.00;100515.15;714140;1199;115435;-72
2021/06/25 20:40:12;;;;;;;9.63;3.80;;;;;;;21.33;100.00;100527.95;713989;1203;115531;-70
2021/06/25 20:55:15;;;;;;;7.37;3.97;;;;;;;20.59;100.00;100532.91;714686;1206;114705;-71
2021/06/25 21:10:17;;;;;;;6.55;4.90;;;;;;;19.95;100.00;100531.17;715236;1199;115384;-71
2021/06/25 21:25:21;;;;;;;6.80;4.05;;;;;;;19.84;100.00;100539.69;714923;1200;114118;-72
2021/06/25 21:40:23;;;;;;;5.90;3.40;;;;;;;19.65;100.00;100533.11;714723;1174;114140;-71
2021/06/25 21:55:26;;;;;;;5.30;3.47;;;;;;;19.72;100.00;100529.50;713747;1193;113962;-72
2021/06/25 22:10:28;;;;;;;3.45;2.83;;;;;;;19.35;100.00;100520.73;713676;1184;114670;-71
2021/06/25 22:25:32;;;;;;;4.07;2.83;;;;;;;19.12;100.00;100520.84;713731;1203;115811;-73
2021/06/25 22:40:34;;;;;;;4.93;3.50;;;;;;;19.00;100.00;100538.29;713859;1199;114581;-71
2021/06/25 22:55:37;;;;;;;5.50;3.93;;;;;;;18.99;100.00;100571.19;713798;1205;114085;-72
2021/06/25 23:10:39;;;;;;;4.77;3.70;;;;;;;18.71;100.00;100561.16;713802;1202;115549;-73
2021/06/25 23:25:41;;;;;;;4.65;3.65;;;;;;;18.41;100.00;100543.36;713786;1196;114480;-72
2021/06/25 23:40:44;;;;;;;5.70;4.08;;;;;;;18.24;100.00;100561.27;713667;1199;114405;-73
2021/06/25 23:55:52;;;;;;;5.83;3.85;;;;;;;18.44;100.00;100569.55;714024;1203;115444;-73
